Time;durP1;ratioP1;P1;durP2;ratioP2;P2;SDS_P1;SDS_P2;PMS_P1;PMS_P2;Temp;Humidity;BMP_temperature;BMP_pressure;BME280_temperature;BME280_humidity;BME280_pressure;Samples;Min_cycle;Max_cycle;Signal;HPM_P1;HPM_P2
2021/12/15 00:01:05;;;;;;;8.50;3.85;;;21.00;53.60;;;;;;5013962;28;20049;-86
2021/12/15 00:03:30;;;;;;;7.50;3.72;;;20.00;53.10;;;;;;5013491;28;20059;-87
2021/12/15 00:05:57;;;;;;;7.18;3.72;;;20.00;53.10;;;;;;5014281;28;20501;-87
2021/12/15 00:08:22;;;;;;;7.75;3.60;;;20.00;53.10;;;;;;5014112;28;20045;-86
2021/12/15 00:10:49;;;;;;;7.30;3.65;;;20.00;53.10;;;;;;5014248;28;20053;-87
2021/12/15 00:13:15;;;;;;;7.22;3.63;;;20.00;53.10;;;;;;5014121;28;20037;-87
2021/12/15 00:15:41;;;;;;;7.32;3.40;;;20.00;53.10;;;;;;5029855;28;20467;-87
2021/12/15 00:18:06;;;;;;;6.68;2.97;;;20.00;53.10;;;;;;5014152;28;20057;-87
2021/12/15 00:20:32;;;;;;;7.70;3.65;;;20.00;53.10;;;;;;5013555;28;20485;-86
2021/12/15 00:22:57;;;;;;;7.90;3.90;;;20.00;53.10;;;;;;5013683;28;20049;-88
2021/12/15 00:25:25;;;;;;;7.20;3.55;;;19.90;53.00;;;;;;5013753;28;20041;-87
2021/12/15 00:27:50;;;;;;;7.47;3.70;;;20.00;53.10;;;;;;5013690;28;20059;-87
2021/12/15 00:30:16;;;;;;;7.95;3.30;;;19.90;53.00;;;;;;5013133;28;20153;-88
2021/12/15 00:32:42;;;;;;;7.80;3.35;;;19.90;53.00;;;;;;5013717;28;20045;-87
2021/12/15 00:35:08;;;;;;;6.45;3.33;;;19.90;53.00;;;;;;5013565;28;20528;-87
2021/12/15 00:37:33;;;;;;;7.22;3.53;;;20.00;53.10;;;;;;5012503;28;20432;-87
2021/12/15 00:39:59;;;;;;;7.25;3.00;;;19.90;53.00;;;;;;5013484;28;20053;-87
2021/12/15 00:42:24;;;;;;;6.10;2.97;;;19.90;53.00;;;;;;5013514;28;20148;-88
2021/12/15 00:44:50;;;;;;;6.65;3.20;;;19.90;53.10;;;;;;5012965;28;20104;-87
2021/12/15 00:47:15;;;;;;;7.78;3.67;;;19.90;53.00;;;;;;5013230;28;20034;-88
2021/12/15 00:49:41;;;;;;;8.63;3.60;;;19.90;53.00;;;;;;4994420;28;20049;-88
2021/12/15 00:52:07;;;;;;;6.10;3.30;;;19.90;53.10;;;;;;5017250;28;20153;-87
2021/12/15 00:54:33;;;;;;;6.47;3.22;;;19.90;53.00;;;;;;4977590;28;20084;-87
2021/12/15 00:56:59;;;;;;;7.65;3.42;;;19.90;53.00;;;;;;4993420;28;20393;-87
2021/12/15 00:59:25;;;;;;;6.07;2.80;;;19.90;53.00;;;;;;4993012;28;20057;-88
2021/12/15 01:01:51;;;;;;;6.68;3.08;;;19.90;53.00;;;;;;4993159;28;20469;-87
2021/12/15 01:04:17;;;;;;;5.53;2.78;;;19.90;53.00;;;;;;4992974;28;20510;-87
2021/12/15 01:06:44;;;;;;;5.65;2.83;;;19.90;53.00;;;;;;4992897;28;20080;-87
2021/12/15 01:09:20;;;;;;;7.15;3.47;;;19.80;53.00;;;;;;4992966;28;20046;-86
2021/12/15 01:12:16;;;;;;;5.85;2.80;;;19.90;53.00;;;;;;4991594;28;20049;-86
2021/12/15 01:20:18;;;;;;;6.97;3.38;;;19.90;53.00;;;;;;4977869;28;20594;-86
2021/12/15 01:22:46;;;;;;;5.95;3.28;;;19.80;53.00;;;;;;4968286;28;20053;-86
2021/12/15 01:25:25;;;;;;;6.30;3.22;;;19.80;53.00;;;;;;4993045;28;20053;-88
2021/12/15 01:27:51;;;;;;;4.95;2.60;;;19.80;53.00;;;;;;4992208;28;20058;-86
2021/12/15 01:30:19;;;;;;;5.97;2.78;;;19.80;53.00;;;;;;4976975;28;20049;-87
2021/12/15 01:32:45;;;;;;;6.18;3.13;;;19.80;53.00;;;;;;4993876;28;20045;-87
2021/12/15 01:35:10;;;;;;;6.15;2.60;;;19.80;53.00;;;;;;5010756;28;20080;-87
2021/12/15 01:37:36;;;;;;;6.15;3.30;;;19.80;53.00;;;;;;5015231;28;20040;-87
2021/12/15 01:40:03;;;;;;;5.53;3.08;;;19.80;53.00;;;;;;5031767;28;20140;-87
2021/12/15 01:42:31;;;;;;;5.75;3.10;;;19.80;53.00;;;;;;5032081;28;20059;-87
2021/12/15 01:47:41;;;;;;;6.65;3.28;;;19.80;53.00;;;;;;5031543;28;20408;-87
2021/12/15 01:50:08;;;;;;;5.03;2.95;;;19.80;53.00;;;;;;5032095;28;20052;-87
2021/12/15 01:52:35;;;;;;;5.22;2.90;;;19.80;53.00;;;;;;5031550;28;20048;-87
2021/12/15 01:55:06;;;;;;;4.40;2.25;;;19.80;53.00;;;;;;5031063;28;20057;-87
2021/12/15 01:57:31;;;;;;;5.18;2.58;;;19.80;53.00;;;;;;5032356;28;20179;-87
2021/12/15 01:59:57;;;;;;;5.63;2.83;;;19.70;53.00;;;;;;5029500;28;20664;-88
2021/12/15 02:02:23;;;;;;;5.45;3.00;;;19.70;52.90;;;;;;5030841;28;20405;-87
2021/12/15 02:04:49;;;;;;;5.80;2.85;;;19.70;53.00;;;;;;5031927;28;20041;-87
2021/12/15 02:07:17;;;;;;;4.85;2.67;;;19.70;52.90;;;;;;5031742;28;20059;-87
2021/12/15 02:12:21;;;;;;;5.82;3.17;;;19.70;52.90;;;;;;5031730;28;20045;-86
2021/12/15 02:14:47;;;;;;;5.82;2.85;;;19.70;52.90;;;;;;5031457;28;20132;-88
2021/12/15 02:17:12;;;;;;;4.70;2.40;;;19.70;53.00;;;;;;5031252;28;20064;-87
2021/12/15 02:19:38;;;;;;;5.40;2.83;;;19.70;53.00;;;;;;5032191;28;20044;-86
2021/12/15 02:22:04;;;;;;;4.68;2.35;;;20.60;53.40;;;;;;5035341;28;20438;-87
2021/12/15 02:24:29;;;;;;;5.00;2.55;;;19.70;53.00;;;;;;5052351;28;20040;-85
2021/12/15 02:26:59;;;;;;;4.72;2.20;;;19.60;52.90;;;;;;5035646;28;20056;-87
2021/12/15 02:29:25;;;;;;;5.05;2.47;;;19.60;52.90;;;;;;5035336;28;20055;-87
2021/12/15 02:39:32;;;;;;;5.80;3.10;;;19.60;52.90;;;;;;5035280;28;20053;-87
2021/12/15 02:41:57;;;;;;;4.18;2.45;;;19.60;52.90;;;;;;5034877;28;20053;-87
2021/12/15 02:44:23;;;;;;;4.57;2.20;;;19.60;53.00;;;;;;5035203;28;20059;-87
2021/12/15 02:46:49;;;;;;;4.82;2.20;;;19.60;52.90;;;;;;5035153;28;20041;-87
2021/12/15 02:49:17;;;;;;;4.22;2.50;;;19.60;52.90;;;;;;5035195;28;20061;-87
2021/12/15 02:51:43;;;;;;;4.93;2.45;;;19.60;52.90;;;;;;5034360;28;20057;-87
2021/12/15 02:54:09;;;;;;;5.50;2.33;;;19.60;52.90;;;;;;5035437;28;20045;-87
2021/12/15 02:56:34;;;;;;;5.38;2.95;;;19.60;52.90;;;;;;5034942;28;20055;-87
2021/12/15 02:59:03;;;;;;;4.85;2.50;;;19.60;52.90;;;;;;5034646;28;20045;-87
2021/12/15 03:01:40;;;;;;;4.57;2.30;;;19.60;53.00;;;;;;5034545;28;20049;-87
2021/12/15 03:04:25;;;;;;;4.65;2.25;;;19.60;53.00;;;;;;5034808;28;20041;-88
2021/12/15 03:15:30;;;;;;;4.13;2.10;;;19.60;53.00;;;;;;5035084;28;20049;-87
2021/12/15 03:18:00;;;;;;;4.18;2.30;;;19.60;53.00;;;;;;5034682;28;20044;-87
2021/12/15 03:20:32;;;;;;;4.95;2.63;;;19.50;52.90;;;;;;5034389;28;20040;-87
2021/12/15 03:22:57;;;;;;;3.42;1.95;;;19.60;53.00;;;;;;5034944;28;20045;-87
2021/12/15 03:25:25;;;;;;;4.60;2.70;;;19.60;53.00;;;;;;5034008;28;20055;-88
2021/12/15 03:36:10;;;;;;;3.80;1.80;;;19.50;52.90;;;;;;5034691;28;20056;-87
2021/12/15 03:38:36;;;;;;;4.07;2.30;;;19.50;53.00;;;;;;5034859;28;20055;-87
2021/12/15 03:41:03;;;;;;;4.15;2.30;;;19.50;53.00;;;;;;5033385;28;20049;-89
2021/12/15 03:43:30;;;;;;;4.20;2.30;;;19.50;52.90;;;;;;5034251;28;20049;-88
2021/12/15 03:46:00;;;;;;;4.07;2.17;;;19.50;52.90;;;;;;5034527;28;20845;-88
2021/12/15 03:48:29;;;;;;;4.72;2.30;;;19.50;52.90;;;;;;5033539;28;20045;-88
2021/12/15 03:50:56;;;;;;;4.65;2.00;;;20.70;53.60;;;;;;5034266;28;20479;-89
2021/12/15 03:53:22;;;;;;;3.78;2.25;;;19.60;53.00;;;;;;5034150;28;20053;-88
2021/12/15 03:55:48;;;;;;;3.30;1.98;;;19.50;52.90;;;;;;5033581;28;20081;-88
2021/12/15 03:58:14;;;;;;;4.50;2.63;;;19.50;52.90;;;;;;5034325;28;20036;-88
2021/12/15 04:00:45;;;;;;;4.38;2.40;;;19.50;53.00;;;;;;5033321;28;20048;-87
2021/12/15 04:03:28;;;;;;;4.18;2.53;;;19.50;52.90;;;;;;5033942;28;20535;-86
2021/12/15 04:05:54;;;;;;;4.25;2.60;;;19.40;52.90;;;;;;5033570;28;20037;-86
2021/12/15 04:08:20;;;;;;;4.45;2.40;;;19.50;53.00;;;;;;5033315;28;20048;-86
2021/12/15 04:10:46;;;;;;;3.58;2.22;;;19.40;52.90;;;;;;5033917;28;20029;-86
2021/12/15 04:13:13;;;;;;;4.47;2.30;;;19.50;53.00;;;;;;5033827;28;20044;-86
2021/12/15 04:15:44;;;;;;;4.20;2.40;;;19.50;53.00;;;;;;5033200;28;20037;-86
2021/12/15 04:18:09;;;;;;;4.78;2.55;;;19.70;53.10;;;;;;5049863;28;20107;-87
2021/12/15 04:20:35;;;;;;;3.88;2.33;;;19.40;52.90;;;;;;5033676;28;20459;-86
2021/12/15 04:23:01;;;;;;;4.82;2.72;;;19.40;52.90;;;;;;5033313;28;20055;-87
2021/12/15 04:25:33;;;;;;;6.30;3.15;;;19.40;53.00;;;;;;5049957;28;20056;-87
2021/12/15 04:28:33;;;;;;;4.22;2.63;;;19.40;52.90;;;;;;5034757;28;20041;-86
2021/12/15 04:31:00;;;;;;;4.38;2.53;;;19.40;53.00;;;;;;5032622;28;20507;-87
2021/12/15 04:33:33;;;;;;;3.63;2.33;;;19.40;52.90;;;;;;5050351;28;20093;-87
2021/12/15 04:36:01;;;;;;;4.72;2.40;;;19.40;52.90;;;;;;5032698;28;20487;-87
2021/12/15 04:38:27;;;;;;;3.58;2.10;;;19.40;53.00;;;;;;5032171;28;20057;-87
2021/12/15 04:40:53;;;;;;;4.30;2.45;;;19.40;52.90;;;;;;5033328;28;20195;-87
2021/12/15 04:43:19;;;;;;;4.15;2.35;;;19.40;53.00;;;;;;5032214;28;20140;-87
2021/12/15 04:45:44;;;;;;;4.93;2.70;;;19.40;53.00;;;;;;5012902;28;20570;-87
2021/12/15 04:48:10;;;;;;;4.18;2.88;;;19.40;53.00;;;;;;5033682;28;20059;-87
2021/12/15 04:50:36;;;;;;;4.53;2.78;;;19.30;52.90;;;;;;5015812;28;20396;-87
2021/12/15 04:53:03;;;;;;;4.43;2.55;;;19.30;52.90;;;;;;5049587;28;20055;-87
2021/12/15 04:55:29;;;;;;;4.32;2.38;;;19.40;53.00;;;;;;5016544;28;20076;-87
2021/12/15 04:57:56;;;;;;;5.05;2.63;;;19.40;53.00;;;;;;5032122;28;20053;-87
2021/12/15 05:00:23;;;;;;;4.97;2.38;;;19.40;53.00;;;;;;5032777;28;20489;-87
2021/12/15 05:02:51;;;;;;;4.53;2.60;;;19.30;53.00;;;;;;5049618;28;20044;-87
2021/12/15 05:05:16;;;;;;;4.32;2.55;;;19.90;53.30;;;;;;5032059;28;20060;-86
2021/12/15 05:07:42;;;;;;;4.30;2.60;;;19.40;53.00;;;;;;5016386;28;20040;-87
2021/12/15 05:10:08;;;;;;;4.00;2.58;;;19.40;53.00;;;;;;5049262;28;20044;-86
2021/12/15 05:12:35;;;;;;;4.63;2.70;;;19.30;53.00;;;;;;5030913;28;20041;-86
2021/12/15 05:15:00;;;;;;;5.35;2.92;;;19.40;53.00;;;;;;5033031;28;20057;-87
2021/12/15 05:17:26;;;;;;;4.05;2.38;;;19.30;53.00;;;;;;5032904;28;20108;-87
2021/12/15 05:19:55;;;;;;;4.90;2.70;;;19.30;53.00;;;;;;5032229;28;20041;-87
2021/12/15 05:22:20;;;;;;;4.50;2.45;;;19.30;53.00;;;;;;5032651;28;20056;-87
2021/12/15 05:24:46;;;;;;;4.72;2.70;;;20.10;53.40;;;;;;5031545;28;20385;-87
2021/12/15 05:27:13;;;;;;;3.75;2.40;;;19.30;53.00;;;;;;5031818;28;20053;-86
2021/12/15 05:29:39;;;;;;;3.97;2.13;;;19.30;53.00;;;;;;5014102;28;20041;-87
2021/12/15 05:32:05;;;;;;;3.92;2.28;;;19.30;53.00;;;;;;5011909;28;20053;-86
2021/12/15 05:34:31;;;;;;;4.38;2.65;;;19.30;53.00;;;;;;5012896;28;20055;-88
2021/12/15 05:36:57;;;;;;;4.55;2.50;;;19.30;53.00;;;;;;5045523;28;20099;-88
2021/12/15 05:39:23;;;;;;;4.80;2.80;;;19.30;53.00;;;;;;5028018;28;20054;-86
2021/12/15 05:41:49;;;;;;;4.32;2.75;;;19.30;53.00;;;;;;5012160;28;20547;-87
2021/12/15 05:44:14;;;;;;;5.25;2.92;;;19.40;53.10;;;;;;5012401;28;20053;-87
2021/12/15 05:46:40;;;;;;;4.20;2.67;;;19.30;53.10;;;;;;5011574;28;20041;-87
2021/12/15 05:49:05;;;;;;;4.53;2.60;;;19.30;53.10;;;;;;4996157;28;20081;-87
2021/12/15 05:51:31;;;;;;;3.45;2.00;;;19.30;53.10;;;;;;5012162;28;20046;-87
2021/12/15 05:53:57;;;;;;;3.72;2.30;;;19.30;53.10;;;;;;5010431;28;20128;-88
2021/12/15 05:56:22;;;;;;;4.40;2.45;;;19.30;53.10;;;;;;5026769;28;20033;-87
2021/12/15 05:58:48;;;;;;;5.25;2.83;;;19.30;53.10;;;;;;5030965;28;20480;-87
2021/12/15 06:01:14;;;;;;;4.15;2.20;;;19.40;53.20;;;;;;5030066;28;20098;-87
2021/12/15 06:03:39;;;;;;;4.43;2.28;;;19.30;53.10;;;;;;4682110;28;10006349;-87
2021/12/15 06:06:05;;;;;;;4.90;2.75;;;19.30;53.10;;;;;;5031394;28;20072;-86
2021/12/15 06:08:30;;;;;;;4.35;2.10;;;19.30;53.10;;;;;;5031050;28;20532;-86
2021/12/15 06:10:56;;;;;;;4.40;2.55;;;19.40;53.20;;;;;;5032166;28;20135;-88
2021/12/15 06:13:25;;;;;;;4.18;2.38;;;19.30;53.10;;;;;;5032096;28;20044;-87
2021/12/15 06:15:52;;;;;;;4.43;2.53;;;19.30;53.10;;;;;;5031284;28;20512;-87
2021/12/15 06:18:18;;;;;;;3.83;2.13;;;19.40;53.10;;;;;;5031418;28;20516;-88
2021/12/15 06:20:45;;;;;;;4.22;2.25;;;19.40;53.10;;;;;;5030900;28;20045;-87
2021/12/15 06:23:16;;;;;;;4.05;2.65;;;19.40;53.10;;;;;;5026508;28;20055;-88
2021/12/15 06:25:42;;;;;;;4.28;2.30;;;19.40;53.10;;;;;;5031987;28;20049;-85
2021/12/15 06:28:09;;;;;;;4.38;2.58;;;19.40;53.10;;;;;;5027504;28;20144;-85
2021/12/15 06:30:35;;;;;;;4.28;2.42;;;19.40;53.10;;;;;;5031295;28;20246;-84
2021/12/15 06:33:00;;;;;;;4.50;2.80;;;19.40;53.10;;;;;;5027332;28;20045;-85
2021/12/15 06:35:26;;;;;;;4.65;2.40;;;19.40;53.10;;;;;;5028014;28;20111;-85
2021/12/15 06:37:52;;;;;;;3.55;2.30;;;19.40;53.10;;;;;;5029339;28;20037;-86
2021/12/15 06:40:17;;;;;;;5.30;3.08;;;19.40;53.10;;;;;;5026633;28;20075;-87
2021/12/15 06:42:43;;;;;;;4.72;2.70;;;19.50;53.10;;;;;;5025425;28;20091;-86
2021/12/15 06:45:12;;;;;;;5.13;2.70;;;19.40;53.10;;;;;;5029631;28;20037;-85
2021/12/15 06:58:34;;;;;;;4.45;2.63;;;19.50;53.10;;;;;;5029058;28;20076;-85
2021/12/15 07:01:00;;;;;;;4.20;2.58;;;19.50;53.10;;;;;;5030591;28;20142;-85
2021/12/15 07:03:26;;;;;;;4.38;2.33;;;19.50;53.10;;;;;;5046613;28;20049;-85
2021/12/15 07:05:52;;;;;;;5.13;3.13;;;19.50;53.10;;;;;;5032299;28;20056;-85
2021/12/15 07:08:18;;;;;;;4.53;2.13;;;19.50;53.00;;;;;;5010880;28;20056;-85
2021/12/15 07:10:47;;;;;;;4.22;2.40;;;19.50;53.10;;;;;;5026727;28;20060;-85
2021/12/15 07:13:13;;;;;;;4.68;2.45;;;19.50;53.10;;;;;;5034756;28;20593;-85
2021/12/15 07:15:39;;;;;;;4.85;2.60;;;19.50;53.00;;;;;;5034433;28;20144;-86
2021/12/15 07:18:08;;;;;;;4.78;2.97;;;19.50;53.00;;;;;;5034301;28;20630;-84
2021/12/15 07:23:00;;;;;;;4.00;2.38;;;19.50;53.00;;;;;;5002089;28;20056;-83
2021/12/15 07:25:26;;;;;;;3.97;2.17;;;19.50;53.10;;;;;;5025413;28;20111;-85
2021/12/15 07:27:52;;;;;;;4.60;2.70;;;20.60;53.60;;;;;;5030959;28;20512;-86
2021/12/15 07:30:18;;;;;;;4.63;2.92;;;19.50;53.00;;;;;;5032604;28;20061;-85
2021/12/15 07:32:43;;;;;;;8.65;2.78;;;19.60;53.10;;;;;;5022053;28;20033;-85
2021/12/15 07:35:09;;;;;;;4.45;2.70;;;19.50;53.00;;;;;;5033739;28;20095;-85
2021/12/15 07:37:35;;;;;;;5.47;2.90;;;20.70;53.70;;;;;;5033187;28;20511;-85
2021/12/15 07:40:01;;;;;;;5.07;2.97;;;19.60;53.10;;;;;;5012608;28;20053;-85
2021/12/15 07:42:35;;;;;;;4.53;3.00;;;19.60;53.10;;;;;;5031156;28;20374;-87
2021/12/15 07:45:01;;;;;;;5.85;2.70;;;19.60;53.10;;;;;;5030989;28;20061;-86
2021/12/15 07:47:27;;;;;;;4.53;2.50;;;19.60;53.10;;;;;;5030086;28;20037;-86
2021/12/15 07:49:52;;;;;;;4.25;2.53;;;19.60;53.10;;;;;;5033679;28;20122;-86
2021/12/15 07:52:18;;;;;;;3.58;2.38;;;19.60;53.00;;;;;;5016916;28;20048;-86
2021/12/15 07:54:46;;;;;;;4.70;2.80;;;19.60;53.10;;;;;;5032610;28;20045;-85
2021/12/15 07:57:16;;;;;;;5.25;2.97;;;19.60;53.00;;;;;;5033885;28;20041;-85
2021/12/15 07:59:45;;;;;;;4.75;2.47;;;19.60;53.10;;;;;;5033209;28;20044;-86
2021/12/15 08:02:10;;;;;;;5.45;3.13;;;19.60;53.10;;;;;;5033720;28;20037;-85
2021/12/15 08:04:36;;;;;;;4.45;2.88;;;19.70;53.00;;;;;;5033833;28;20519;-86
2021/12/15 08:07:02;;;;;;;4.72;2.65;;;19.60;53.00;;;;;;5032919;28;20053;-87
2021/12/15 08:09:27;;;;;;;5.32;3.40;;;19.60;53.00;;;;;;5022010;28;20110;-86
2021/12/15 08:11:53;;;;;;;5.22;3.30;;;19.60;53.00;;;;;;5029400;28;20053;-85
2021/12/15 08:14:18;;;;;;;4.70;2.70;;;19.60;53.00;;;;;;5015621;28;20044;-94
2021/12/15 08:16:44;;;;;;;6.95;3.72;;;19.60;53.20;;;;;;5018286;28;20048;-90
2021/12/15 08:19:14;;;;;;;10.85;5.22;;;19.60;53.20;;;;;;5017412;28;20129;-89
2021/12/15 08:21:40;;;;;;;7.25;5.13;;;19.60;53.20;;;;;;5013912;28;20417;-90
2021/12/15 08:24:05;;;;;;;8.63;5.60;;;19.60;53.00;;;;;;5024975;28;20047;-92
2021/12/15 08:26:37;;;;;;;8.98;4.80;;;19.60;53.10;;;;;;5031221;28;20416;-88
2021/12/15 08:29:18;;;;;;;7.95;4.90;;;19.60;53.10;;;;;;5035393;28;20053;-90
2021/12/15 08:31:47;;;;;;;7.82;5.10;;;18.40;52.70;;;;;;5033969;28;20041;-87
2021/12/15 08:34:25;;;;;;;6.45;4.57;;;21.10;54.50;;;;;;5035859;28;20049;-94
2021/12/15 08:36:56;;;;;;;8.50;5.18;;;19.50;53.50;;;;;;5037611;28;20408;-94
2021/12/15 08:39:37;;;;;;;7.60;4.68;;;19.50;53.20;;;;;;5034862;28;20092;-95
2021/12/15 08:42:52;;;;;;;7.80;4.80;;;20.50;53.80;;;;;;5011741;28;20072;-94
2021/12/15 08:57:01;;;;;;;8.50;5.35;;;19.30;53.20;;;;;;5044619;28;20162;-94
2021/12/15 08:59:30;;;;;;;7.40;4.90;;;19.60;53.50;;;;;;5037249;28;20075;-94
2021/12/15 09:01:55;;;;;;;7.30;4.80;;;18.00;53.10;;;;;;5036340;28;20041;-94
2021/12/15 09:04:27;;;;;;;6.75;4.30;;;19.60;53.30;;;;;;5019786;28;20127;-95
2021/12/15 09:10:14;;;;;;;7.78;4.20;;;19.60;53.00;;;;;;5022242;28;20107;-95
2021/12/15 09:12:46;;;;;;;7.55;5.00;;;20.80;54.00;;;;;;4997868;28;20049;-95
2021/12/15 09:15:12;;;;;;;7.85;4.55;;;18.90;53.20;;;;;;5004426;28;20132;-94
2021/12/15 09:17:47;;;;;;;7.93;5.70;;;18.90;53.10;;;;;;5018520;28;20072;-96
2021/12/15 09:20:15;;;;;;;9.38;5.05;;;18.40;53.60;;;;;;5029302;28;20085;-95
2021/12/15 09:22:55;;;;;;;10.20;6.63;;;20.90;53.70;;;;;;5022904;28;20053;-95
2021/12/15 09:25:24;;;;;;;9.40;6.18;;;20.80;54.20;;;;;;5035803;28;20085;-95
2021/12/15 09:28:05;;;;;;;9.30;5.80;;;18.20;53.20;;;;;;5034627;28;20076;-95
2021/12/15 09:30:43;;;;;;;9.18;5.35;;;19.80;53.60;;;;;;5033191;28;20041;-91
2021/12/15 09:33:31;;;;;;;7.63;4.75;;;19.50;53.50;;;;;;5031177;28;20102;-93
2021/12/15 09:36:06;;;;;;;6.68;4.38;;;18.90;52.70;;;;;;5034151;28;20055;-92
2021/12/15 09:38:32;;;;;;;7.82;5.05;;;19.50;53.40;;;;;;5023408;28;20502;-85
2021/12/15 09:41:05;;;;;;;8.10;4.60;;;19.30;53.20;;;;;;5030884;28;20090;-84
2021/12/15 09:43:32;;;;;;;10.68;4.28;;;17.80;52.50;;;;;;5026813;28;20061;-87
2021/12/15 09:46:30;;;;;;;10.10;4.60;;;20.80;54.00;;;;;;5044900;28;20063;-87
2021/12/15 10:03:06;;;;;;;12.90;6.20;;;19.60;53.40;;;;;;5047725;28;20049;-86
2021/12/15 10:19:43;;;;;;;10.07;4.97;;;19.70;53.60;;;;;;5025976;28;20140;-84
2021/12/15 10:22:48;;;;;;;14.13;6.32;;;19.70;53.50;;;;;;5010638;28;20049;-85
2021/12/15 10:25:20;;;;;;;11.38;5.47;;;19.80;53.60;;;;;;5011185;28;20481;-85
2021/12/15 10:27:50;;;;;;;11.65;5.53;;;20.60;54.10;;;;;;5019860;28;20447;-84
2021/12/15 10:30:24;;;;;;;12.13;6.53;;;19.80;53.80;;;;;;5026925;28;20093;-84
2021/12/15 10:33:05;;;;;;;10.43;5.28;;;19.80;53.70;;;;;;5050931;28;20131;-85
2021/12/15 10:35:43;;;;;;;10.43;6.03;;;19.80;53.80;;;;;;5066156;28;20056;-85
2021/12/15 10:38:19;;;;;;;12.65;5.60;;;19.80;53.70;;;;;;5050128;28;20121;-86
2021/12/15 10:41:18;;;;;;;10.77;6.22;;;19.80;53.80;;;;;;5009037;28;20057;-85
2021/12/15 10:43:52;;;;;;;10.98;5.20;;;19.80;53.80;;;;;;5035553;28;20053;-92
2021/12/15 10:46:37;;;;;;;11.27;6.50;;;21.10;54.60;;;;;;5028191;28;20427;-90
2021/12/15 10:49:14;;;;;;;9.02;5.55;;;19.80;53.80;;;;;;5024034;28;20080;-93
2021/12/15 10:51:45;;;;;;;11.15;6.00;;;19.80;53.90;;;;;;5021013;28;20555;-87
2021/12/15 10:54:18;;;;;;;8.88;5.25;;;19.90;54.00;;;;;;5002782;28;20049;-86
2021/12/15 10:56:54;;;;;;;16.02;5.93;;;19.90;53.90;;;;;;5012911;28;20045;-88
2021/12/15 10:59:19;;;;;;;10.80;5.72;;;19.90;54.00;;;;;;5028597;28;20079;-88
2021/12/15 11:01:54;;;;;;;9.60;5.53;;;19.90;53.90;;;;;;5014468;28;20041;-91
2021/12/15 11:04:23;;;;;;;9.50;5.28;;;19.90;53.80;;;;;;5015029;28;20049;-90
2021/12/15 11:07:03;;;;;;;8.13;5.03;;;19.90;53.80;;;;;;5028385;28;20059;-89
2021/12/15 11:09:36;;;;;;;9.77;5.47;;;19.90;53.80;;;;;;5013011;28;20056;-88
2021/12/15 11:12:11;;;;;;;7.43;4.57;;;19.90;53.70;;;;;;5011885;28;20045;-89
2021/12/15 11:14:39;;;;;;;8.80;4.82;;;19.90;53.70;;;;;;5029735;28;20562;-89
2021/12/15 11:17:26;;;;;;;10.40;4.65;;;19.90;53.70;;;;;;5011162;28;20045;-85
2021/12/15 11:19:59;;;;;;;10.75;4.70;;;20.00;53.80;;;;;;5012675;28;20053;-86
2021/12/15 11:22:43;;;;;;;8.40;4.53;;;20.00;53.70;;;;;;5013922;28;20079;-86
2021/12/15 11:25:17;;;;;;;9.40;5.00;;;20.00;53.70;;;;;;5013953;28;20095;-86
2021/12/15 11:27:43;;;;;;;7.55;4.97;;;20.00;53.60;;;;;;5015130;28;20060;-85
2021/12/15 11:30:14;;;;;;;6.93;4.28;;;20.00;53.60;;;;;;4982283;28;20045;-85
2021/12/15 11:32:48;;;;;;;6.35;3.97;;;20.00;53.60;;;;;;5014175;28;20045;-85
2021/12/15 11:35:20;;;;;;;8.25;4.75;;;20.00;53.60;;;;;;5014565;28;20056;-85
2021/12/15 11:37:50;;;;;;;;;;;21.50;54.40;;;;;;5014336;28;20515;-84
2021/12/15 11:40:17;;;;;;;7.07;4.15;;;20.00;53.60;;;;;;5023362;28;20007;-87
2021/12/15 11:42:43;;;;;;;7.32;4.38;;;20.00;53.60;;;;;;5018129;28;20484;-85
2021/12/15 11:45:10;;;;;;;7.60;4.30;;;21.60;54.40;;;;;;5033350;28;20099;-86
2021/12/15 11:47:37;;;;;;;7.18;4.35;;;20.00;53.50;;;;;;5033800;28;20550;-85
2021/12/15 11:50:21;;;;;;;7.40;4.30;;;20.00;53.50;;;;;;5022163;28;20091;-85
2021/12/15 11:52:48;;;;;;;5.68;3.25;;;21.00;54.10;;;;;;5030796;28;20045;-85
2021/12/15 11:55:28;;;;;;;7.20;4.15;;;20.60;53.80;;;;;;5032983;28;20396;-85
2021/12/15 11:57:54;;;;;;;6.78;4.03;;;20.00;53.60;;;;;;5032569;28;20053;-87
2021/12/15 12:00:21;;;;;;;6.82;3.65;;;20.00;53.60;;;;;;5026742;28;20103;-86
2021/12/15 12:02:54;;;;;;;7.50;4.00;;;19.90;53.50;;;;;;5025819;28;20084;-86
2021/12/15 12:05:22;;;;;;;7.00;4.47;;;20.00;53.60;;;;;;5031339;28;20634;-85
2021/12/15 12:08:10;;;;;;;8.05;4.80;;;21.20;54.20;;;;;;5031134;28;20060;-86
2021/12/15 12:10:45;;;;;;;7.10;4.53;;;20.00;53.60;;;;;;5033488;28;20047;-86
2021/12/15 12:13:28;;;;;;;7.07;4.45;;;21.60;54.40;;;;;;5032876;28;20048;-88
2021/12/15 12:16:12;;;;;;;7.13;3.95;;;21.20;54.20;;;;;;5033618;28;20193;-89
2021/12/15 12:18:40;;;;;;;7.30;4.50;;;21.20;54.50;;;;;;5033816;28;20058;-88
2021/12/15 12:21:15;;;;;;;7.10;4.40;;;18.50;53.80;;;;;;5016323;28;20044;-88
2021/12/15 12:23:50;;;;;;;7.07;4.15;;;20.90;54.50;;;;;;5007657;28;20065;-88
2021/12/15 12:26:31;;;;;;;5.88;3.58;;;21.50;54.80;;;;;;5017736;28;20037;-89
2021/12/15 12:29:01;;;;;;;8.25;4.05;;;20.40;53.80;;;;;;5022706;28;20053;-88
2021/12/15 12:31:39;;;;;;;5.75;3.80;;;20.80;54.50;;;;;;5000749;28;20089;-91
2021/12/15 12:34:14;;;;;;;6.25;3.60;;;20.60;54.70;;;;;;5034457;28;20046;-88
2021/12/15 12:36:42;;;;;;;6.40;3.78;;;19.90;54.40;;;;;;5007456;28;20124;-93
2021/12/15 12:39:33;;;;;;;6.70;4.10;;;20.50;54.50;;;;;;4976036;28;20106;-92
2021/12/15 12:42:41;;;;;;;5.95;3.53;;;17.70;52.50;;;;;;4989174;28;20124;-92
2021/12/15 12:45:32;;;;;;;5.78;3.70;;;19.80;53.60;;;;;;4985574;28;20050;-88
2021/12/15 12:59:27;;;;;;;5.53;3.40;;;19.90;54.00;;;;;;5012536;28;20046;-90
2021/12/15 13:01:53;;;;;;;6.22;3.30;;;19.80;53.90;;;;;;4995856;28;20050;-93
2021/12/15 13:04:19;;;;;;;8.43;2.92;;;19.90;54.10;;;;;;4994590;28;20103;-94
2021/12/15 13:06:44;;;;;;;6.55;3.20;;;19.90;54.10;;;;;;4996240;28;20057;-90
2021/12/15 13:09:15;;;;;;;5.85;3.13;;;20.80;54.50;;;;;;4994377;28;20046;-91
2021/12/15 13:11:43;;;;;;;6.93;3.67;;;19.90;54.00;;;;;;4994174;28;20054;-89
2021/12/15 13:14:10;;;;;;;6.55;3.72;;;19.90;53.90;;;;;;4993381;28;20053;-88
2021/12/15 13:16:38;;;;;;;6.40;3.92;;;19.90;53.90;;;;;;4992023;28;20076;-88
2021/12/15 13:19:15;;;;;;;6.57;3.92;;;19.90;54.00;;;;;;4992869;28;20050;-89
2021/12/15 13:21:46;;;;;;;5.93;3.83;;;19.90;54.00;;;;;;4992144;28;20121;-88
2021/12/15 13:30:56;;;;;;;7.03;3.67;;;19.90;54.00;;;;;;4980544;28;20053;-87
2021/12/15 13:33:31;;;;;;;4.80;2.80;;;19.90;54.00;;;;;;4966974;28;20065;-88
2021/12/15 13:36:08;;;;;;;5.63;3.22;;;19.90;54.00;;;;;;4989768;28;20050;-90
2021/12/15 13:38:55;;;;;;;6.40;3.13;;;19.90;54.00;;;;;;5000652;28;20050;-88
2021/12/15 13:44:35;;;;;;;8.23;3.15;;;20.00;54.10;;;;;;4991083;28;20045;-88
2021/12/15 13:47:07;;;;;;;6.45;3.33;;;19.90;54.10;;;;;;4990734;28;20057;-88
2021/12/15 13:49:47;;;;;;;5.78;3.33;;;20.10;54.20;;;;;;4992858;28;20057;-90
2021/12/15 13:52:34;;;;;;;7.68;3.05;;;20.00;54.20;;;;;;4990504;28;20037;-90
2021/12/15 13:55:29;;;;;;;6.32;2.83;;;20.00;54.20;;;;;;5002428;28;20132;-86
2021/12/15 13:58:10;;;;;;;8.15;2.85;;;20.00;54.30;;;;;;5006200;28;20057;-90
2021/12/15 14:00:43;;;;;;;5.07;2.78;;;20.80;54.60;;;;;;5011245;28;20048;-90
2021/12/15 14:03:16;;;;;;;7.32;2.83;;;20.00;54.20;;;;;;5022579;28;20049;-89
2021/12/15 14:05:52;;;;;;;48.17;22.00;;;21.30;54.90;;;;;;5010976;28;20866;-88
2021/12/15 14:08:45;;;;;;;27.95;12.85;;;20.10;54.20;;;;;;5011437;28;20037;-90
2021/12/15 14:11:21;;;;;;;51.67;22.67;;;20.10;54.20;;;;;;5029783;28;20420;-85
2021/12/15 14:13:54;;;;;;;73.05;31.17;;;20.10;54.20;;;;;;5047215;28;20049;-85
2021/12/15 14:16:38;;;;;;;60.22;27.05;;;20.10;54.20;;;;;;5029756;28;20045;-86
2021/12/15 14:19:09;;;;;;;62.03;25.60;;;20.60;54.50;;;;;;5028553;28;20040;-88
2021/12/15 14:21:37;;;;;;;55.40;25.40;;;20.10;54.20;;;;;;5030242;28;20052;-89
2021/12/15 14:24:02;;;;;;;52.65;25.02;;;20.10;54.20;;;;;;5031140;28;20115;-85
2021/12/15 14:26:31;;;;;;;49.20;23.30;;;20.10;54.20;;;;;;5029844;28;20044;-85
2021/12/15 14:28:59;;;;;;;51.45;22.33;;;20.20;54.30;;;;;;5028660;28;20052;-92
2021/12/15 14:31:28;;;;;;;51.70;22.65;;;20.20;54.30;;;;;;5031468;28;20037;-88
2021/12/15 14:33:59;;;;;;;56.03;23.73;;;20.20;54.30;;;;;;5025254;28;20124;-89
2021/12/15 14:36:36;;;;;;;48.10;21.08;;;20.20;54.30;;;;;;5031027;28;20451;-88
2021/12/15 14:39:05;;;;;;;50.25;21.88;;;21.00;54.70;;;;;;5028144;28;20061;-88
2021/12/15 14:41:36;;;;;;;52.15;20.98;;;20.20;54.40;;;;;;5027838;28;20723;-89
2021/12/15 14:44:13;;;;;;;54.03;21.65;;;20.20;54.30;;;;;;5030322;28;20148;-89
2021/12/15 14:46:45;;;;;;;46.55;20.83;;;20.20;54.30;;;;;;5031454;28;20055;-90
2021/12/15 14:49:32;;;;;;;42.40;19.25;;;20.20;54.30;;;;;;5031219;28;20532;-91
2021/12/15 14:52:00;;;;;;;40.88;18.63;;;20.20;54.30;;;;;;5021593;28;20061;-90
2021/12/15 14:54:26;;;;;;;44.30;18.88;;;20.20;54.30;;;;;;5031130;28;20144;-91